createdAt,value
2023-03-22T00:00:37.262Z,8.18
2023-03-22T00:03:10.304Z,7.81
2023-03-22T00:05:41.760Z,8.20
2023-03-22T00:08:13.673Z,7.98
2023-03-22T00:10:47.755Z,7.97
2023-03-22T00:13:19.145Z,8.49
2023-03-22T00:15:50.651Z,8.65
2023-03-22T00:18:21.936Z,8.68
2023-03-22T00:20:55.277Z,8.30
2023-03-22T00:23:28.276Z,8.78
2023-03-22T00:25:59.821Z,8.78
2023-03-22T00:28:31.285Z,8.91
2023-03-22T00:31:04.810Z,8.97
2023-03-22T00:33:37.117Z,8.91
2023-03-22T00:36:11.602Z,8.57
2023-03-22T00:38:44.230Z,9.09
2023-03-22T00:41:17.787Z,9.18
2023-03-22T00:43:50.711Z,9.19
2023-03-22T00:46:22.445Z,9.05
2023-03-22T00:48:54.072Z,9.10
2023-03-22T00:51:25.397Z,8.75
2023-03-22T00:53:56.781Z,9.12
2023-03-22T00:56:28.781Z,8.93
2023-03-22T00:59:00.293Z,9.28
2023-03-22T01:01:32.043Z,9.41
2023-03-22T01:04:05.051Z,9.36
2023-03-22T01:06:36.356Z,9.41
2023-03-22T01:09:07.634Z,9.46
2023-03-22T01:11:38.958Z,9.41
2023-03-22T01:14:10.434Z,9.44
2023-03-22T01:16:41.854Z,9.47
2023-03-22T01:19:13.360Z,9.01
2023-03-22T01:21:44.643Z,9.43
2023-03-22T01:24:16.682Z,9.32
2023-03-22T01:26:48.450Z,9.51
2023-03-22T01:29:20.416Z,9.47
2023-03-22T01:31:52.770Z,9.54
2023-03-22T01:34:24.264Z,9.47
2023-03-22T01:36:55.826Z,8.91
2023-03-22T01:39:27.487Z,9.48
2023-03-22T01:41:59.122Z,9.00
2023-03-22T01:44:31.455Z,9.32
2023-03-22T01:47:02.920Z,9.51
2023-03-22T01:49:35.664Z,9.54
2023-03-22T01:52:14.142Z,9.10
2023-03-22T01:54:50.442Z,9.59
2023-03-22T01:57:22.179Z,9.64
2023-03-22T01:59:53.534Z,9.67
2023-03-22T02:02:25.400Z,9.70
2023-03-22T02:04:57.969Z,9.68
2023-03-22T02:07:31.690Z,9.45
2023-03-22T02:10:03.594Z,9.76
2023-03-22T02:13:15.352Z,9.88
2023-03-22T02:16:00.861Z,9.74
2023-03-22T02:18:57.049Z,9.80
2023-03-22T02:22:06.512Z,9.75
2023-03-22T02:24:58.591Z,9.36
2023-03-22T02:27:46.916Z,9.56
2023-03-22T02:30:53.194Z,9.54
2023-03-22T02:33:49.262Z,9.52
2023-03-22T02:36:48.385Z,9.44
2023-03-22T02:39:30.810Z,9.38
2023-03-22T02:42:23.863Z,9.23
2023-03-22T02:45:22.013Z,9.04
2023-03-22T02:48:07.216Z,9.42
2023-03-22T02:50:48.995Z,9.24
2023-03-22T02:53:45.275Z,9.51
2023-03-22T02:56:25.733Z,9.32
2023-03-22T02:59:04.267Z,9.33
2023-03-22T03:01:40.864Z,8.99
2023-03-22T03:04:26.761Z,9.49
2023-03-22T03:07:05.671Z,8.99
2023-03-22T03:09:40.408Z,9.37
2023-03-22T03:12:18.990Z,9.42
2023-03-22T03:14:50.649Z,9.41
2023-03-22T03:17:28.202Z,9.52
2023-03-22T03:20:32.092Z,9.52
2023-03-22T03:23:24.468Z,9.26
2023-03-22T03:26:13.540Z,9.51
2023-03-22T03:29:09.782Z,9.42
2023-03-22T03:31:56.118Z,9.43
2023-03-22T03:34:39.768Z,9.25
2023-03-22T03:37:19.032Z,8.94
2023-03-22T03:39:56.022Z,9.03
2023-03-22T03:42:29.813Z,9.35
2023-03-22T03:45:01.820Z,9.13
2023-03-22T03:47:34.646Z,9.00
2023-03-22T03:50:07.547Z,9.45
2023-03-22T03:52:38.912Z,9.57
2023-03-22T03:55:10.535Z,9.44
2023-03-22T03:57:41.900Z,9.47
2023-03-22T04:00:17.182Z,9.51
2023-03-22T04:02:48.483Z,8.97
2023-03-22T04:05:19.818Z,9.30
2023-03-22T04:07:51.159Z,9.41
2023-03-22T04:10:22.559Z,9.54
2023-03-22T04:12:53.867Z,9.49
2023-03-22T04:15:25.185Z,9.50
2023-03-22T04:17:56.703Z,9.47
2023-03-22T04:20:29.750Z,9.48
2023-03-22T04:23:01.114Z,9.50
2023-03-22T04:25:33.854Z,9.46
2023-03-22T04:28:05.531Z,9.04
2023-03-22T04:30:37.110Z,9.47
2023-03-22T04:33:08.667Z,9.41
2023-03-22T04:35:39.939Z,9.06
2023-03-22T04:38:11.995Z,9.46
2023-03-22T04:40:46.591Z,8.94
2023-03-22T04:43:19.140Z,9.32
2023-03-22T04:45:50.617Z,9.33
2023-03-22T04:48:23.662Z,9.22
2023-03-22T04:50:55.466Z,9.23
2023-03-22T04:53:27.553Z,9.22
2023-03-22T04:55:59.381Z,8.84
2023-03-22T04:58:30.891Z,8.68
2023-03-22T05:01:03.376Z,8.69
2023-03-22T05:03:36.600Z,9.03
2023-03-22T05:06:09.113Z,8.79
2023-03-22T05:08:40.554Z,9.01
2023-03-22T05:11:14.833Z,8.91
2023-03-22T05:13:46.204Z,9.02
2023-03-22T05:16:17.625Z,8.97
2023-03-22T05:18:49.856Z,9.11
2023-03-22T05:21:28.356Z,8.92
2023-03-22T05:23:59.702Z,9.13
2023-03-22T05:26:31.005Z,8.96
2023-03-22T05:29:02.321Z,9.25
2023-03-22T05:31:34.515Z,8.84
2023-03-22T05:34:05.877Z,9.12
2023-03-22T05:36:37.283Z,9.24
2023-03-22T05:39:09.166Z,9.21
2023-03-22T05:41:40.589Z,9.34
2023-03-22T05:44:11.949Z,9.35
2023-03-22T05:46:43.358Z,9.37
2023-03-22T05:49:14.703Z,9.01
2023-03-22T05:51:47.020Z,9.43
2023-03-22T05:54:18.488Z,9.38
2023-03-22T05:56:49.784Z,9.44
2023-03-22T05:59:21.499Z,9.49
2023-03-22T06:01:52.850Z,9.53
2023-03-22T06:04:24.160Z,9.58
2023-03-22T06:06:55.518Z,9.35
2023-03-22T06:09:26.990Z,9.69
2023-03-22T06:11:58.781Z,9.40
2023-03-22T06:14:30.350Z,10.00
2023-03-22T06:17:01.982Z,9.99
2023-03-22T06:19:33.332Z,10.14
2023-03-22T06:22:04.651Z,9.99
2023-03-22T06:24:36.400Z,10.21
2023-03-22T06:27:09.129Z,10.38
2023-03-22T06:29:40.467Z,10.46
2023-03-22T06:32:11.868Z,10.30
2023-03-22T06:34:43.945Z,10.68
2023-03-22T06:37:16.306Z,10.66
2023-03-22T06:39:47.798Z,10.74
2023-03-22T06:42:19.179Z,10.70
2023-03-22T06:44:50.488Z,10.84
2023-03-22T06:47:21.778Z,10.95
2023-03-22T06:49:53.467Z,10.96
2023-03-22T06:52:24.832Z,10.94
2023-03-22T06:54:56.883Z,11.00
2023-03-22T06:57:28.346Z,10.97
2023-03-22T07:00:00.007Z,10.93
2023-03-22T07:02:31.388Z,11.17
2023-03-22T07:05:02.740Z,11.37
2023-03-22T07:07:34.035Z,11.34
2023-03-22T07:10:07.828Z,11.11
2023-03-22T07:12:39.196Z,11.23
2023-03-22T07:15:11.018Z,11.11
2023-03-22T07:17:42.282Z,11.60
2023-03-22T07:20:13.665Z,11.53
2023-03-22T07:22:45.869Z,11.56
2023-03-22T07:25:17.351Z,11.78
2023-03-22T07:27:48.677Z,11.91
2023-03-22T07:30:20.059Z,11.56
2023-03-22T07:32:51.460Z,11.81
2023-03-22T07:35:24.558Z,12.23
2023-03-22T07:37:58.473Z,12.20
2023-03-22T07:40:30.432Z,12.52
2023-03-22T07:43:01.709Z,12.34
2023-03-22T07:45:33.105Z,12.61
2023-03-22T07:48:04.593Z,12.57
2023-03-22T07:50:35.990Z,12.64
2023-03-22T07:53:07.343Z,12.52
2023-03-22T07:55:39.881Z,12.28
2023-03-22T07:58:11.241Z,12.64
2023-03-22T08:00:42.555Z,12.21
2023-03-22T08:03:13.916Z,12.65
2023-03-22T08:05:45.564Z,12.30
2023-03-22T08:08:17.268Z,12.87
2023-03-22T08:10:50.253Z,12.74
2023-03-22T08:13:21.621Z,12.53
2023-03-22T08:15:53.011Z,12.95
2023-03-22T08:18:24.651Z,12.94
2023-03-22T08:20:58.129Z,13.14
2023-03-22T08:23:40.961Z,12.90
2023-03-22T08:26:15.956Z,13.05
2023-03-22T08:28:47.275Z,13.42
2023-03-22T08:31:20.053Z,13.63
2023-03-22T08:33:51.961Z,13.70
2023-03-22T08:36:23.705Z,13.38
2023-03-22T08:38:55.094Z,13.83
2023-03-22T08:41:26.404Z,13.76
2023-03-22T08:43:58.124Z,13.66
2023-03-22T08:46:29.535Z,13.64
2023-03-22T08:49:02.292Z,13.40
2023-03-22T08:51:33.647Z,13.75
2023-03-22T08:54:05.285Z,14.12
2023-03-22T08:56:38.048Z,14.02
2023-03-22T08:59:09.772Z,14.29
2023-03-22T09:01:41.296Z,14.38
2023-03-22T09:04:12.773Z,14.60
2023-03-22T09:06:45.390Z,14.85
2023-03-22T09:09:16.718Z,14.56
2023-03-22T09:11:47.999Z,15.09
2023-03-22T09:14:19.314Z,15.18
2023-03-22T09:16:51.666Z,15.28
2023-03-22T09:19:23.048Z,15.51
2023-03-22T09:21:54.459Z,15.27
2023-03-22T09:24:25.754Z,15.66
2023-03-22T09:26:58.528Z,15.55
2023-03-22T09:29:29.840Z,15.49
2023-03-22T09:32:01.273Z,15.77
2023-03-22T09:34:32.681Z,15.72
2023-03-22T09:37:04.248Z,15.95
2023-03-22T09:39:38.357Z,16.50
2023-03-22T09:42:31.365Z,17.08
2023-03-22T09:45:06.721Z,17.35
2023-03-22T09:47:45.819Z,17.35
2023-03-22T09:50:31.122Z,17.07
2023-03-22T09:53:02.407Z,17.15
2023-03-22T09:55:39.651Z,17.13
2023-03-22T09:58:21.975Z,17.17
2023-03-22T10:01:21.275Z,17.11
2023-03-22T10:04:09.359Z,16.85
2023-03-22T10:06:46.537Z,17.20
2023-03-22T10:09:41.435Z,16.95
2023-03-22T10:12:24.791Z,16.85
2023-03-22T10:15:05.578Z,16.43
2023-03-22T10:17:39.681Z,16.57
2023-03-22T10:20:27.583Z,16.59
2023-03-22T10:23:02.789Z,16.42
2023-03-22T10:25:38.347Z,16.62
2023-03-22T10:28:24.836Z,16.40
2023-03-22T10:30:57.105Z,16.72
2023-03-22T10:33:39.196Z,16.49
2023-03-22T10:36:14.741Z,16.52
2023-03-22T10:38:50.375Z,16.43
2023-03-22T10:41:24.597Z,16.52
2023-03-22T10:44:00.430Z,16.69
2023-03-22T10:46:39.151Z,16.76
2023-03-22T10:49:23.009Z,16.78
2023-03-22T10:51:57.964Z,16.83
2023-03-22T10:54:30.257Z,16.72
2023-03-22T10:57:01.619Z,16.64
2023-03-22T10:59:47.234Z,16.44
2023-03-22T11:02:24.843Z,16.78
2023-03-22T11:05:03.541Z,16.71
2023-03-22T11:07:42.740Z,16.45
2023-03-22T11:10:23.316Z,16.86
2023-03-22T11:13:06.704Z,16.99
2023-03-22T11:15:51.450Z,16.57
2023-03-22T11:18:24.811Z,16.60
2023-03-22T11:21:04.591Z,16.81
2023-03-22T11:23:38.610Z,16.99
2023-03-22T11:26:12.986Z,16.64
2023-03-22T11:28:50.710Z,16.73
2023-03-22T11:31:22.129Z,16.58
2023-03-22T11:33:59.564Z,16.73
2023-03-22T11:36:31.000Z,16.83
2023-03-22T11:39:08.027Z,16.89
2023-03-22T11:41:40.616Z,16.45
2023-03-22T11:44:15.799Z,16.70
2023-03-22T11:47:00.799Z,16.47
2023-03-22T11:49:48.708Z,16.83
2023-03-22T11:52:27.415Z,16.77
2023-03-22T11:55:00.875Z,16.64
2023-03-22T11:57:34.409Z,16.89
2023-03-22T12:00:21.377Z,16.91
2023-03-22T12:03:01.355Z,16.90
2023-03-22T12:05:37.108Z,16.72
2023-03-22T12:08:18.837Z,17.02
2023-03-22T12:10:55.733Z,16.97
2023-03-22T12:13:37.486Z,16.73
2023-03-22T12:16:12.683Z,16.99
2023-03-22T12:19:13.084Z,17.18
2023-03-22T12:21:46.831Z,17.10
2023-03-22T12:24:32.047Z,16.97
2023-03-22T12:27:20.710Z,16.73
2023-03-22T12:29:58.952Z,16.87
2023-03-22T12:32:45.140Z,16.84
2023-03-22T12:35:27.953Z,16.34
2023-03-22T12:38:07.770Z,16.62
2023-03-22T12:40:41.379Z,16.28
2023-03-22T12:43:38.002Z,16.74
2023-03-22T12:46:18.238Z,16.66
2023-03-22T12:48:55.850Z,16.28
2023-03-22T12:51:27.306Z,16.20
2023-03-22T12:54:00.304Z,16.42
2023-03-22T12:56:40.273Z,16.28
2023-03-22T12:59:22.573Z,16.23
2023-03-22T13:02:17.531Z,15.73
2023-03-22T13:04:57.617Z,16.08
2023-03-22T13:07:35.530Z,16.09
2023-03-22T13:10:29.586Z,15.96
2023-03-22T13:13:23.446Z,15.77
2023-03-22T13:16:10.912Z,15.65
2023-03-22T13:18:42.584Z,15.21
2023-03-22T13:21:26.799Z,15.41
2023-03-22T13:24:04.533Z,14.92
2023-03-22T13:26:51.587Z,14.96
2023-03-22T13:29:25.949Z,14.47
2023-03-22T13:32:00.333Z,14.49
2023-03-22T13:34:48.257Z,14.46
2023-03-22T13:37:36.998Z,14.24
2023-03-22T13:40:36.317Z,14.22
2023-03-22T13:43:19.658Z,13.91
2023-03-22T13:46:17.421Z,14.12
2023-03-22T13:48:49.740Z,14.27
2023-03-22T13:51:27.946Z,14.17
2023-03-22T13:54:16.281Z,14.07
2023-03-22T13:56:56.840Z,14.01
2023-03-22T13:59:29.631Z,14.01
2023-03-22T14:02:16.285Z,13.99
2023-03-22T14:04:55.921Z,14.00
2023-03-22T14:07:33.525Z,13.98
2023-03-22T14:10:12.770Z,14.04
2023-03-22T14:12:46.902Z,14.03
2023-03-22T14:15:41.147Z,13.73
2023-03-22T14:18:17.867Z,13.90
2023-03-22T14:20:54.947Z,13.80
